createdAt,value
2023-03-13T00:01:39.726Z,7.85
2023-03-13T00:04:06.569Z,7.82
2023-03-13T00:06:35.710Z,7.82
2023-03-13T00:09:05.168Z,7.84
2023-03-13T00:11:32.509Z,7.87
2023-03-13T00:14:02.054Z,7.94
2023-03-13T00:16:29.731Z,7.97
2023-03-13T00:18:57.746Z,7.93
2023-03-13T00:21:27.328Z,7.94
2023-03-13T00:23:54.355Z,7.89
2023-03-13T00:26:23.222Z,7.96
2023-03-13T00:28:51.252Z,7.96
2023-03-13T00:31:20.473Z,7.96
2023-03-13T00:33:49.508Z,7.94
2023-03-13T00:36:17.554Z,7.86
2023-03-13T00:38:44.936Z,7.92
2023-03-13T00:41:19.783Z,7.95
2023-03-13T00:43:47.654Z,7.98
2023-03-13T00:46:16.717Z,7.97
2023-03-13T00:48:44.012Z,8.04
2023-03-13T00:51:10.956Z,8.05
2023-03-13T00:53:37.726Z,8.14
2023-03-13T00:56:10.377Z,8.16
2023-03-13T00:58:39.458Z,8.14
2023-03-13T01:01:08.547Z,8.25
2023-03-13T01:03:35.925Z,8.34
2023-03-13T01:06:04.965Z,8.30
2023-03-13T01:08:31.575Z,8.28
2023-03-13T01:11:03.842Z,8.37
2023-03-13T01:13:32.828Z,8.37
2023-03-13T01:16:11.810Z,8.33
2023-03-13T01:18:41.796Z,8.30
2023-03-13T01:21:08.475Z,8.28
2023-03-13T01:23:35.773Z,8.37
2023-03-13T01:26:05.192Z,8.41
2023-03-13T01:28:32.056Z,8.33
2023-03-13T01:30:59.954Z,8.31
2023-03-13T01:33:26.615Z,8.27
2023-03-13T01:35:53.261Z,8.29
2023-03-13T01:38:19.738Z,8.27
2023-03-13T01:40:49.663Z,8.24
2023-03-13T01:43:28.476Z,8.18
2023-03-13T01:46:18.273Z,8.20
2023-03-13T01:49:15.915Z,8.22
2023-03-13T01:51:48.175Z,8.27
2023-03-13T01:54:21.294Z,8.26
2023-03-13T01:57:00.319Z,8.22
2023-03-13T01:59:30.849Z,8.23
2023-03-13T02:02:00.372Z,8.15
2023-03-13T02:04:31.702Z,8.23
2023-03-13T02:07:02.959Z,8.30
2023-03-13T02:09:32.327Z,8.26
2023-03-13T02:12:07.402Z,8.24
2023-03-13T02:14:35.909Z,8.26
2023-03-13T02:17:03.802Z,8.30
2023-03-13T02:19:34.552Z,8.30
2023-03-13T02:22:00.885Z,8.29
2023-03-13T02:24:37.793Z,8.34
2023-03-13T02:27:04.300Z,8.35
2023-03-13T02:29:31.172Z,8.44
2023-03-13T02:31:58.012Z,8.37
2023-03-13T02:34:30.292Z,8.36
2023-03-13T02:36:58.583Z,8.52
2023-03-13T02:39:27.026Z,8.57
2023-03-13T02:41:54.298Z,8.62
2023-03-13T02:44:21.119Z,8.58
2023-03-13T02:46:50.347Z,8.68
2023-03-13T02:49:22.987Z,8.67
2023-03-13T02:51:49.940Z,8.74
2023-03-13T02:54:38.102Z,8.72
2023-03-13T02:57:06.115Z,8.67
2023-03-13T02:59:34.550Z,8.62
2023-03-13T03:02:01.113Z,8.65
2023-03-13T03:04:28.094Z,8.68
2023-03-13T03:06:54.863Z,8.70
2023-03-13T03:09:22.568Z,8.70
2023-03-13T03:11:49.299Z,8.70
2023-03-13T03:14:16.837Z,8.73
2023-03-13T03:16:43.859Z,8.73
2023-03-13T03:19:11.245Z,8.70
2023-03-13T03:21:38.204Z,8.71
2023-03-13T03:24:05.033Z,8.72
2023-03-13T03:26:31.512Z,8.74
2023-03-13T03:28:58.154Z,8.74
2023-03-13T03:31:25.040Z,8.79
2023-03-13T03:33:51.758Z,8.76
2023-03-13T03:36:20.638Z,8.83
2023-03-13T03:38:47.912Z,8.85
2023-03-13T03:41:15.293Z,8.84
2023-03-13T03:43:42.626Z,8.90
2023-03-13T03:46:09.710Z,8.93
2023-03-13T03:48:38.173Z,8.93
2023-03-13T03:51:05.388Z,8.94
2023-03-13T03:53:32.449Z,8.98
2023-03-13T03:55:59.652Z,8.98
2023-03-13T03:58:26.477Z,9.04
2023-03-13T04:00:52.939Z,9.07
2023-03-13T04:03:20.072Z,9.10
2023-03-13T04:05:46.580Z,9.07
2023-03-13T04:08:13.590Z,9.12
2023-03-13T04:10:40.022Z,9.16
2023-03-13T04:13:06.907Z,9.17
2023-03-13T04:15:33.643Z,9.17
2023-03-13T04:18:01.232Z,9.17
2023-03-13T04:20:28.782Z,9.16
2023-03-13T04:22:55.457Z,9.15
2023-03-13T04:25:21.874Z,9.20
2023-03-13T04:27:48.383Z,9.23
2023-03-13T04:30:17.563Z,9.22
2023-03-13T04:32:45.282Z,9.24
2023-03-13T04:35:11.962Z,9.17
2023-03-13T04:37:38.795Z,9.27
2023-03-13T04:40:07.054Z,9.25
2023-03-13T04:42:33.785Z,9.31
2023-03-13T04:45:00.662Z,9.27
2023-03-13T04:47:27.064Z,9.30
2023-03-13T04:49:53.649Z,9.30
2023-03-13T04:52:20.081Z,9.28
2023-03-13T04:54:46.609Z,9.38
2023-03-13T04:57:13.035Z,9.29
2023-03-13T04:59:39.620Z,9.35
2023-03-13T05:02:06.093Z,9.43
2023-03-13T05:04:32.676Z,9.48
2023-03-13T05:06:59.488Z,9.47
2023-03-13T05:09:25.935Z,9.53
2023-03-13T05:11:53.501Z,9.61
2023-03-13T05:14:19.963Z,9.61
2023-03-13T05:16:46.475Z,9.63
2023-03-13T05:19:12.856Z,9.61
2023-03-13T05:21:39.706Z,9.61
2023-03-13T05:24:06.322Z,9.67
2023-03-13T05:26:32.880Z,9.69
2023-03-13T05:28:59.805Z,9.65
2023-03-13T05:31:27.468Z,9.70
2023-03-13T05:33:53.875Z,9.70
2023-03-13T05:36:20.404Z,9.73
2023-03-13T05:38:46.834Z,9.79
2023-03-13T05:41:13.404Z,9.80
2023-03-13T05:43:40.237Z,9.83
2023-03-13T05:46:06.723Z,9.85
2023-03-13T05:48:33.178Z,9.89
2023-03-13T05:50:59.617Z,9.91
2023-03-13T05:53:26.395Z,10.05
2023-03-13T05:55:52.794Z,10.17
2023-03-13T05:58:19.292Z,10.16
2023-03-13T06:00:45.685Z,10.13
2023-03-13T06:03:14.303Z,10.11
2023-03-13T06:05:40.927Z,10.05
2023-03-13T06:08:07.496Z,10.06
2023-03-13T06:10:34.234Z,10.07
2023-03-13T06:13:13.736Z,10.16
2023-03-13T06:15:53.043Z,10.08
2023-03-13T06:18:19.732Z,10.24
2023-03-13T06:20:46.892Z,10.30
2023-03-13T06:23:13.323Z,10.53
2023-03-13T06:25:40.283Z,10.69
2023-03-13T06:28:07.212Z,10.83
2023-03-13T06:30:33.800Z,10.86
2023-03-13T06:33:00.420Z,10.93
2023-03-13T06:35:26.892Z,11.09
2023-03-13T06:37:54.546Z,11.22
2023-03-13T06:40:20.982Z,11.27
2023-03-13T06:42:47.842Z,11.40
2023-03-13T06:45:14.430Z,11.45
2023-03-13T06:47:42.081Z,11.44
2023-03-13T06:50:09.319Z,11.48
2023-03-13T06:52:43.962Z,11.51
2023-03-13T06:55:16.705Z,11.59
2023-03-13T06:57:44.665Z,11.63
2023-03-13T07:00:11.629Z,11.73
2023-03-13T07:02:38.396Z,11.81
2023-03-13T07:05:05.858Z,11.79
2023-03-13T07:07:33.522Z,11.78
2023-03-13T07:10:01.246Z,11.74
2023-03-13T07:12:27.945Z,11.66
2023-03-13T07:14:54.396Z,11.72
2023-03-13T07:17:21.031Z,11.79
2023-03-13T07:19:47.541Z,11.84
2023-03-13T07:22:14.966Z,11.91
2023-03-13T07:24:41.814Z,11.95
2023-03-13T07:27:08.571Z,12.01
2023-03-13T07:29:35.393Z,11.95
2023-03-13T07:32:02.065Z,12.01
2023-03-13T07:34:28.608Z,12.07
2023-03-13T07:36:58.063Z,12.07
2023-03-13T07:39:24.781Z,12.02
2023-03-13T07:41:51.326Z,12.08
2023-03-13T07:44:18.211Z,12.07
2023-03-13T07:46:44.739Z,12.10
2023-03-13T07:49:11.132Z,12.04
2023-03-13T07:51:43.971Z,12.04
2023-03-13T07:54:11.940Z,11.96
2023-03-13T07:56:39.421Z,12.01
2023-03-13T07:59:07.262Z,12.09
2023-03-13T08:01:35.024Z,12.14
2023-03-13T08:04:02.072Z,12.19
2023-03-13T08:06:33.906Z,12.34
2023-03-13T08:09:00.798Z,12.43
2023-03-13T08:11:28.371Z,12.52
2023-03-13T08:13:56.591Z,12.61
2023-03-13T08:16:26.946Z,12.66
2023-03-13T08:18:56.393Z,12.64
2023-03-13T08:21:29.212Z,12.71
2023-03-13T08:23:58.095Z,12.81
2023-03-13T08:26:27.337Z,12.91
2023-03-13T08:29:02.156Z,12.99
2023-03-13T08:31:34.508Z,13.00
2023-03-13T08:34:03.068Z,12.92
2023-03-13T08:36:32.984Z,12.93
2023-03-13T08:39:02.028Z,12.88
2023-03-13T08:41:32.274Z,12.82
2023-03-13T08:44:01.384Z,12.82
2023-03-13T08:46:30.835Z,12.84
2023-03-13T08:48:57.849Z,12.83
2023-03-13T08:51:26.624Z,12.84
2023-03-13T08:53:53.661Z,12.83
2023-03-13T08:56:22.510Z,12.90
2023-03-13T08:58:54.038Z,12.88
2023-03-13T09:01:23.278Z,12.89
2023-03-13T09:03:50.277Z,12.95
2023-03-13T09:06:17.073Z,12.97
2023-03-13T09:08:44.567Z,13.04
2023-03-13T09:11:17.053Z,13.09
2023-03-13T09:13:46.299Z,13.09
2023-03-13T09:16:18.281Z,13.18
2023-03-13T09:18:45.526Z,13.16
2023-03-13T09:21:14.967Z,13.11
2023-03-13T09:23:41.562Z,13.05
2023-03-13T09:26:08.340Z,13.02
2023-03-13T09:28:35.443Z,13.10
2023-03-13T09:31:14.602Z,13.09
2023-03-13T09:33:42.402Z,13.23
2023-03-13T09:36:10.361Z,13.21
2023-03-13T09:38:38.415Z,13.16
2023-03-13T09:41:26.752Z,13.10
2023-03-13T09:43:59.693Z,13.04
2023-03-13T09:46:33.043Z,12.98
2023-03-13T09:49:26.236Z,12.91
2023-03-13T09:51:59.691Z,12.86
2023-03-13T09:54:33.681Z,12.75
2023-03-13T09:57:07.600Z,12.78
2023-03-13T09:59:40.291Z,12.78
2023-03-13T10:02:21.790Z,12.72
2023-03-13T10:04:55.971Z,12.64
2023-03-13T10:07:22.737Z,12.63
2023-03-13T10:09:49.405Z,12.64
2023-03-13T10:12:23.180Z,12.61
2023-03-13T10:14:57.381Z,12.64
2023-03-13T10:17:32.998Z,12.61
2023-03-13T10:20:23.090Z,12.65
2023-03-13T10:22:56.372Z,12.67
2023-03-13T10:25:31.906Z,12.74
2023-03-13T10:27:59.391Z,12.74
2023-03-13T10:30:29.319Z,12.70
2023-03-13T10:33:01.889Z,12.72
2023-03-13T10:35:34.294Z,12.76
2023-03-13T10:38:10.865Z,12.83
2023-03-13T10:40:37.957Z,12.75
2023-03-13T10:43:05.944Z,12.83
2023-03-13T10:45:35.821Z,12.89
2023-03-13T10:48:11.027Z,12.95
2023-03-13T10:50:41.214Z,13.05
2023-03-13T10:53:20.088Z,13.12
2023-03-13T10:55:47.182Z,13.17
2023-03-13T10:58:34.152Z,13.19
2023-03-13T11:01:16.719Z,13.11
2023-03-13T11:03:45.578Z,13.17
2023-03-13T11:06:38.605Z,13.18
2023-03-13T11:09:16.447Z,13.19
2023-03-13T11:12:03.892Z,13.20
2023-03-13T11:14:30.397Z,13.31
2023-03-13T11:17:24.073Z,13.38
2023-03-13T11:20:09.442Z,13.36
2023-03-13T11:22:55.356Z,13.37
2023-03-13T11:25:30.325Z,13.37
2023-03-13T11:28:34.114Z,13.38
2023-03-13T11:31:13.434Z,13.37
2023-03-13T11:33:57.567Z,13.37
2023-03-13T11:36:30.002Z,13.36
2023-03-13T11:39:28.799Z,13.46
2023-03-13T11:42:02.713Z,13.57
2023-03-13T11:44:45.034Z,13.61
2023-03-13T11:47:26.882Z,13.60
2023-03-13T11:50:10.873Z,13.64
2023-03-13T11:52:46.516Z,13.62
2023-03-13T11:55:25.563Z,13.60
2023-03-13T11:58:23.424Z,13.75
2023-03-13T12:01:00.332Z,13.86
2023-03-13T12:03:37.257Z,14.01
2023-03-13T12:06:15.874Z,14.18
2023-03-13T12:08:55.635Z,14.10
2023-03-13T12:11:37.430Z,14.10
2023-03-13T12:14:16.153Z,13.95
2023-03-13T12:16:49.075Z,13.90
2023-03-13T12:19:22.563Z,13.81
2023-03-13T12:21:53.323Z,13.72
2023-03-13T12:24:23.237Z,13.67
2023-03-13T12:27:03.032Z,13.67
2023-03-13T12:29:39.849Z,13.58
2023-03-13T12:32:19.992Z,13.57
2023-03-13T12:34:59.521Z,13.49
2023-03-13T12:37:49.370Z,13.52
2023-03-13T12:40:33.090Z,13.42
2023-03-13T12:43:10.511Z,13.32
2023-03-13T12:45:46.381Z,13.26
2023-03-13T12:48:12.819Z,13.21
2023-03-13T12:50:58.198Z,13.20
2023-03-13T12:53:38.106Z,13.16
2023-03-13T12:56:33.590Z,13.10
2023-03-13T12:59:15.142Z,13.05
2023-03-13T13:01:50.409Z,13.08
2023-03-13T13:04:21.741Z,13.03
2023-03-13T13:06:57.603Z,13.01
2023-03-13T13:09:27.541Z,12.96
2023-03-13T13:11:55.874Z,12.90
2023-03-13T13:14:42.303Z,12.83
2023-03-13T13:17:21.583Z,12.88
2023-03-13T13:19:48.309Z,12.82
2023-03-13T13:22:38.148Z,12.84
2023-03-13T13:25:04.836Z,12.90
2023-03-13T13:27:46.580Z,12.96
2023-03-13T13:30:19.065Z,12.97
2023-03-13T13:32:49.696Z,13.04
2023-03-13T13:35:35.713Z,13.09
2023-03-13T13:38:18.063Z,13.14
2023-03-13T13:41:03.586Z,13.18
2023-03-13T13:43:31.965Z,13.13
2023-03-13T13:46:24.965Z,13.22
2023-03-13T13:49:16.873Z,13.38
2023-03-13T13:52:06.660Z,13.65
2023-03-13T13:54:42.220Z,13.85
2023-03-13T13:57:23.848Z,14.03
2023-03-13T13:59:53.379Z,14.23
2023-03-13T14:02:44.962Z,14.32
2023-03-13T14:05:32.394Z,14.34
2023-03-13T14:08:04.740Z,14.23
2023-03-13T14:10:45.680Z,14.19
2023-03-13T14:13:17.708Z,14.20
2023-03-13T14:15:47.013Z,14.22
2023-03-13T14:18:20.855Z,14.22
2023-03-13T14:20:50.137Z,14.24
2023-03-13T14:23:42.765Z,14.25
2023-03-13T14:26:10.784Z,14.32
2023-03-13T14:28:42.247Z,14.43
2023-03-13T14:31:12.663Z,14.48
2023-03-13T14:33:39.324Z,14.54
2023-03-13T14:36:06.557Z,14.55
2023-03-13T14:38:33.519Z,14.48
2023-03-13T14:41:00.016Z,14.50
2023-03-13T14:43:38.158Z,14.45
2023-03-13T14:46:31.063Z,14.53
2023-03-13T14:49:06.801Z,14.50
2023-03-13T14:51:37.998Z,14.57
2023-03-13T14:54:04.894Z,14.62
2023-03-13T14:56:37.120Z,14.79
2023-03-13T14:59:13.763Z,14.91
2023-03-13T15:01:40.686Z,15.00
2023-03-13T15:04:07.161Z,15.16
2023-03-13T15:06:33.948Z,15.11
2023-03-13T15:09:22.159Z,15.10
2023-03-13T15:11:56.768Z,15.02
2023-03-13T15:14:43.524Z,14.94
2023-03-13T15:17:30.374Z,14.79
2023-03-13T15:19:59.190Z,14.74
2023-03-13T15:22:31.548Z,14.74
2023-03-13T15:25:07.401Z,14.66
2023-03-13T15:27:34.483Z,14.60
2023-03-13T15:30:00.912Z,14.55
2023-03-13T15:32:30.392Z,14.57
2023-03-13T15:35:02.171Z,14.51
2023-03-13T15:37:30.296Z,14.59
2023-03-13T15:39:57.670Z,14.75
2023-03-13T15:42:25.497Z,15.06
2023-03-13T15:44:52.148Z,15.59
2023-03-13T15:47:22.403Z,15.79
2023-03-13T15:49:48.895Z,15.79
2023-03-13T15:52:19.409Z,15.59
2023-03-13T15:54:46.891Z,15.56
2023-03-13T15:57:16.244Z,15.54
2023-03-13T15:59:44.191Z,15.41
2023-03-13T16:02:23.148Z,15.38
2023-03-13T16:04:50.307Z,15.25
2023-03-13T16:07:22.844Z,15.19
2023-03-13T16:09:49.694Z,15.13
2023-03-13T16:12:16.158Z,15.07
2023-03-13T16:14:42.697Z,14.95
2023-03-13T16:17:28.239Z,14.82
2023-03-13T16:19:55.522Z,14.77
2023-03-13T16:22:21.955Z,14.80
2023-03-13T16:24:48.350Z,14.79
2023-03-13T16:27:19.749Z,14.73
2023-03-13T16:29:46.718Z,14.72
2023-03-13T16:32:16.329Z,14.66
2023-03-13T16:34:43.183Z,14.79
2023-03-13T16:37:16.105Z,14.89
2023-03-13T16:39:44.334Z,15.03
2023-03-13T16:42:11.668Z,15.04
2023-03-13T16:44:39.146Z,15.02
2023-03-13T16:47:19.326Z,14.88
2023-03-13T16:49:47.560Z,14.75
2023-03-13T16:52:16.026Z,14.63
2023-03-13T16:54:42.849Z,14.53
2023-03-13T16:57:14.185Z,14.48
2023-03-13T16:59:41.338Z,14.42
2023-03-13T17:02:18.863Z,14.29
2023-03-13T17:04:46.985Z,14.21
2023-03-13T17:07:23.092Z,14.15
2023-03-13T17:09:51.236Z,14.09
2023-03-13T17:12:19.294Z,14.00
2023-03-13T17:14:46.401Z,13.90
2023-03-13T17:17:19.626Z,13.91
2023-03-13T17:19:46.541Z,13.76
2023-03-13T17:22:15.242Z,13.78
2023-03-13T17:24:42.544Z,13.85
2023-03-13T17:27:18.368Z,13.76
2023-03-13T17:29:44.844Z,13.68
2023-03-13T17:32:12.414Z,13.78
2023-03-13T17:34:40.207Z,13.90
2023-03-13T17:37:18.186Z,13.86
2023-03-13T17:39:44.896Z,13.80
2023-03-13T17:42:12.553Z,13.68
2023-03-13T17:44:39.672Z,13.67
2023-03-13T17:47:24.544Z,13.47
2023-03-13T17:49:50.987Z,13.36
2023-03-13T17:52:18.234Z,13.30
2023-03-13T17:54:45.509Z,13.19
2023-03-13T17:57:18.603Z,13.26
2023-03-13T17:59:46.866Z,13.17
2023-03-13T18:02:14.883Z,13.12
2023-03-13T18:04:43.202Z,13.09
2023-03-13T18:07:21.447Z,13.04
2023-03-13T18:09:48.132Z,13.08
2023-03-13T18:12:15.088Z,12.91
2023-03-13T18:14:41.941Z,12.78
2023-03-13T18:17:20.853Z,12.66
2023-03-13T18:19:49.592Z,12.43
2023-03-13T18:22:19.461Z,12.44
2023-03-13T18:24:46.124Z,12.37
2023-03-13T18:27:18.874Z,12.56
2023-03-13T18:29:47.418Z,12.37
2023-03-13T18:32:15.600Z,12.60
2023-03-13T18:34:42.650Z,12.55
2023-03-13T18:37:20.975Z,12.67
2023-03-13T18:39:50.357Z,12.81
2023-03-13T18:42:17.902Z,12.84
2023-03-13T18:44:44.335Z,12.81
2023-03-13T18:47:17.115Z,12.75
2023-03-13T18:49:44.089Z,12.88
2023-03-13T18:52:11.851Z,12.88
2023-03-13T18:54:38.838Z,12.82
2023-03-13T18:57:17.886Z,12.76
2023-03-13T18:59:44.867Z,12.86
2023-03-13T19:02:14.719Z,12.81
2023-03-13T19:04:41.943Z,12.66
2023-03-13T19:07:20.007Z,12.64
2023-03-13T19:09:47.393Z,12.64
2023-03-13T19:12:15.413Z,12.60
2023-03-13T19:14:42.240Z,12.54
2023-03-13T19:17:29.546Z,12.42
2023-03-13T19:19:59.024Z,12.46
2023-03-13T19:22:26.573Z,12.40
2023-03-13T19:24:53.179Z,12.28
2023-03-13T19:27:19.652Z,12.29
2023-03-13T19:29:46.774Z,12.25
2023-03-13T19:32:18.750Z,12.26
2023-03-13T19:34:45.504Z,12.24
2023-03-13T19:37:14.617Z,12.21
2023-03-13T19:39:42.491Z,12.12
2023-03-13T19:42:09.033Z,12.09
2023-03-13T19:44:36.825Z,12.10
2023-03-13T19:47:06.471Z,11.94
2023-03-13T19:49:33.659Z,11.82
2023-03-13T19:52:00.382Z,11.70
2023-03-13T19:54:27.019Z,11.66
2023-03-13T19:56:53.690Z,11.58
2023-03-13T19:59:26.579Z,11.61
2023-03-13T20:01:55.596Z,11.56
2023-03-13T20:04:22.176Z,11.48
2023-03-13T20:06:48.758Z,11.50
2023-03-13T20:09:18.777Z,11.45
2023-03-13T20:11:45.218Z,11.38
2023-03-13T20:14:12.425Z,11.32
2023-03-13T20:16:39.195Z,11.31
2023-03-13T20:19:06.216Z,11.31
2023-03-13T20:21:37.306Z,11.31
2023-03-13T20:24:04.173Z,11.16
2023-03-13T20:26:31.303Z,11.22
2023-03-13T20:28:58.220Z,11.02
2023-03-13T20:31:30.454Z,10.99
2023-03-13T20:33:57.467Z,10.97
2023-03-13T20:36:25.079Z,10.88
2023-03-13T20:38:51.605Z,10.81
2023-03-13T20:41:24.327Z,10.86
2023-03-13T20:43:52.163Z,10.78
2023-03-13T20:46:20.516Z,10.69
2023-03-13T20:48:47.042Z,10.61
2023-03-13T20:51:14.128Z,10.57
2023-03-13T20:53:42.260Z,10.47
2023-03-13T20:56:10.663Z,10.42
2023-03-13T20:58:37.924Z,10.47
2023-03-13T21:01:06.140Z,10.34
2023-03-13T21:03:35.296Z,10.21
2023-03-13T21:06:09.674Z,10.01
2023-03-13T21:08:38.817Z,9.93
2023-03-13T21:11:13.363Z,9.77
2023-03-13T21:13:40.594Z,9.67
2023-03-13T21:16:07.484Z,9.54
2023-03-13T21:18:34.258Z,9.53
2023-03-13T21:21:14.921Z,9.42
2023-03-13T21:23:41.500Z,9.30
2023-03-13T21:26:08.184Z,9.09
2023-03-13T21:28:34.995Z,9.23
2023-03-13T21:31:16.512Z,9.03
2023-03-13T21:33:44.626Z,9.04
2023-03-13T21:36:14.149Z,9.05
2023-03-13T21:38:40.867Z,9.03
2023-03-13T21:41:12.513Z,9.03
2023-03-13T21:43:41.568Z,8.91
2023-03-13T21:46:13.774Z,8.94
2023-03-13T21:48:42.145Z,8.91
2023-03-13T21:51:10.597Z,9.10
2023-03-13T21:53:38.115Z,9.10
2023-03-13T21:56:05.255Z,9.21
2023-03-13T21:58:31.687Z,9.28
2023-03-13T22:00:58.822Z,9.38
2023-03-13T22:03:29.186Z,9.39
2023-03-13T22:05:55.847Z,9.49
2023-03-13T22:08:22.373Z,9.54
2023-03-13T22:10:50.594Z,9.55
2023-03-13T22:13:17.565Z,9.69
2023-03-13T22:15:46.237Z,9.70
2023-03-13T22:18:17.467Z,9.77
2023-03-13T22:20:44.662Z,9.90
2023-03-13T22:23:12.837Z,9.75
2023-03-13T22:25:42.247Z,9.76
2023-03-13T22:28:10.418Z,9.84
2023-03-13T22:30:39.985Z,9.82
2023-03-13T22:33:07.766Z,9.81
2023-03-13T22:35:35.627Z,9.92
2023-03-13T22:38:02.541Z,9.95
2023-03-13T22:40:29.173Z,9.97
2023-03-13T22:42:55.665Z,9.93
2023-03-13T22:45:22.431Z,9.91
2023-03-13T22:47:49.948Z,9.91
2023-03-13T22:50:17.578Z,9.88
2023-03-13T22:52:44.484Z,9.93
2023-03-13T22:55:11.011Z,10.00
2023-03-13T22:57:37.600Z,10.05
2023-03-13T23:00:06.162Z,9.98
2023-03-13T23:02:32.630Z,10.03
2023-03-13T23:05:01.411Z,10.03
2023-03-13T23:07:29.627Z,9.98
2023-03-13T23:09:57.430Z,9.94
2023-03-13T23:12:25.218Z,9.83
2023-03-13T23:14:52.643Z,9.85
2023-03-13T23:17:19.265Z,9.79
2023-03-13T23:19:45.882Z,9.79
2023-03-13T23:22:18.103Z,9.82
2023-03-13T23:24:45.053Z,9.74
2023-03-13T23:27:11.828Z,9.73
2023-03-13T23:29:38.691Z,9.75
2023-03-13T23:32:05.599Z,9.69
2023-03-13T23:34:32.601Z,9.71
2023-03-13T23:36:59.017Z,9.73
2023-03-13T23:39:25.668Z,9.72
2023-03-13T23:41:52.076Z,9.75
2023-03-13T23:44:18.546Z,9.81
2023-03-13T23:46:45.449Z,9.92
2023-03-13T23:49:13.123Z,9.93
2023-03-13T23:51:39.860Z,9.99
2023-03-13T23:54:07.007Z,9.99
2023-03-13T23:56:33.989Z,9.98
2023-03-13T23:59:00.590Z,10.04
